Etusivu
METAR-TAF:

METAR-TAF

Lentoasemat :

Litchfield Municipal Airport

Litchfield, Minnesota, Yhdysvallat

Leveyspiiri: 45-05-50N, Pituuspiiri: 094-30-26W, korkeus merenpinnasta: 348 m

Tämänhetkinen sää

Tämä raportti tehtiin 34 minuuttia sitten, kello 14.35 UTC
Tuuli 8 kn lännestä puuskistuen 15 kn:hen
Lämpötila 13°C
Kosteus 72%
Ilmanpaine 1006 hPa
Näkyvyys: 16.1 km
selkeää

METAR: KLJF 271435Z AUTO 26008G15KT 10SM CLR 13/08 A2970 RMK AO2

Aika: 10:09 (15:09 UTC)


TAF: puuttuu

Säähavainnot ja -ennusteet yli 4000 lentoasemalta (METAR- ja TAF-raportit).

Käytössä olevat sääasemat on merkitty karttaan keltaisilla ja punaisilla pisteillä.

Aseta hiiri pisteen päälle nähdäksesi sääaseman nimen.

Klikkaa sitten nähdäksesi säähavainnot ja -ennusteet.

Kartan vaihtaminen: klikkaa mustalla rastilla varustettuja vihreitä pisteitä, niin voit zoomata sisään; viivalla varustettua vihreää pistettä, niin voit zoomata ulos tai vihreitä nuolia, niin pääset viereisille kartoille.


METAR-TAF: